sensor_id;sensor_type;location;lat;lon;timestamp;pressure;altitude;pressure_sealevel;temperature;humidity
79077;BME280;68477;42.698;23.342;2023-12-28T00:02:02;96495.00;;;2.88;93.68
79077;BME280;68477;42.698;23.342;2023-12-28T00:04:27;96490.38;;;2.79;93.62
79077;BME280;68477;42.698;23.342;2023-12-28T00:06:54;96496.22;;;2.68;93.64
79077;BME280;68477;42.698;23.342;2023-12-28T00:09:19;96501.63;;;2.51;94.43
79077;BME280;68477;42.698;23.342;2023-12-28T00:11:45;96497.72;;;2.86;94.00
79077;BME280;68477;42.698;23.342;2023-12-28T00:14:10;96506.59;;;2.97;92.36
79077;BME280;68477;42.698;23.342;2023-12-28T00:16:36;96504.38;;;2.90;92.95
79077;BME280;68477;42.698;23.342;2023-12-28T00:19:03;96513.66;;;2.80;93.19
79077;BME280;68477;42.698;23.342;2023-12-28T00:21:30;96516.28;;;2.95;92.25
79077;BME280;68477;42.698;23.342;2023-12-28T00:23:55;96505.03;;;2.80;92.75
79077;BME280;68477;42.698;23.342;2023-12-28T00:26:21;96507.25;;;2.57;94.78
79077;BME280;68477;42.698;23.342;2023-12-28T00:28:47;96519.84;;;2.21;96.70
79077;BME280;68477;42.698;23.342;2023-12-28T00:31:13;96508.13;;;2.14;97.48
79077;BME280;68477;42.698;23.342;2023-12-28T00:33:38;96513.09;;;2.47;95.02
79077;BME280;68477;42.698;23.342;2023-12-28T00:36:04;96517.00;;;2.54;92.95
79077;BME280;68477;42.698;23.342;2023-12-28T00:38:30;96516.06;;;2.69;93.66
79077;BME280;68477;42.698;23.342;2023-12-28T00:40:57;96522.00;;;2.57;92.83
79077;BME280;68477;42.698;23.342;2023-12-28T00:43:22;96528.31;;;2.96;91.73
79077;BME280;68477;42.698;23.342;2023-12-28T00:45:48;96525.78;;;2.94;92.18
79077;BME280;68477;42.698;23.342;2023-12-28T00:48:13;96527.47;;;3.09;92.06
79077;BME280;68477;42.698;23.342;2023-12-28T00:50:39;96526.72;;;3.21;89.95
79077;BME280;68477;42.698;23.342;2023-12-28T00:53:04;96526.38;;;2.85;91.61
79077;BME280;68477;42.698;23.342;2023-12-28T00:55:30;96534.81;;;3.03;91.43
79077;BME280;68477;42.698;23.342;2023-12-28T00:57:56;96534.34;;;2.68;92.50
79077;BME280;68477;42.698;23.342;2023-12-28T01:00:21;96535.66;;;2.60;92.54
79077;BME280;68477;42.698;23.342;2023-12-28T01:02:47;96544.25;;;2.32;93.98
79077;BME280;68477;42.698;23.342;2023-12-28T01:05:13;96538.81;;;2.66;93.03
79077;BME280;68477;42.698;23.342;2023-12-28T01:07:39;96540.28;;;2.55;95.09
79077;BME280;68477;42.698;23.342;2023-12-28T01:10:05;96536.16;;;2.37;94.80
79077;BME280;68477;42.698;23.342;2023-12-28T01:12:31;96547.41;;;1.93;96.97
79077;BME280;68477;42.698;23.342;2023-12-28T01:14:57;96545.31;;;1.68;97.44
79077;BME280;68477;42.698;23.342;2023-12-28T01:17:22;96539.41;;;1.66;96.23
79077;BME280;68477;42.698;23.342;2023-12-28T01:19:48;96543.66;;;1.83;97.23
79077;BME280;68477;42.698;23.342;2023-12-28T01:22:13;96537.59;;;2.13;95.67
79077;BME280;68477;42.698;23.342;2023-12-28T01:24:39;96540.06;;;2.16;94.72
79077;BME280;68477;42.698;23.342;2023-12-28T01:27:04;96530.84;;;2.10;95.05
79077;BME280;68477;42.698;23.342;2023-12-28T01:29:30;96532.16;;;2.17;94.73
79077;BME280;68477;42.698;23.342;2023-12-28T01:31:56;96526.88;;;2.19;94.73
79077;BME280;68477;42.698;23.342;2023-12-28T01:34:21;96533.31;;;2.27;94.41
79077;BME280;68477;42.698;23.342;2023-12-28T01:36:47;96529.25;;;2.52;92.47
79077;BME280;68477;42.698;23.342;2023-12-28T01:39:12;96526.50;;;2.25;94.74
79077;BME280;68477;42.698;23.342;2023-12-28T01:41:40;96529.88;;;2.41;93.23
79077;BME280;68477;42.698;23.342;2023-12-28T01:44:06;96532.94;;;2.48;92.80
79077;BME280;68477;42.698;23.342;2023-12-28T01:46:33;96525.91;;;2.64;92.73
79077;BME280;68477;42.698;23.342;2023-12-28T01:48:59;96520.53;;;2.39;91.95
79077;BME280;68477;42.698;23.342;2023-12-28T01:51:26;96525.13;;;2.33;93.41
79077;BME280;68477;42.698;23.342;2023-12-28T01:53:53;96525.31;;;2.30;92.74
79077;BME280;68477;42.698;23.342;2023-12-28T01:56:19;96523.28;;;2.21;93.35
79077;BME280;68477;42.698;23.342;2023-12-28T01:58:48;96531.97;;;2.20;94.03
79077;BME280;68477;42.698;23.342;2023-12-28T02:01:14;96525.31;;;2.16;93.57
79077;BME280;68477;42.698;23.342;2023-12-28T02:03:41;96528.16;;;2.12;94.60
79077;BME280;68477;42.698;23.342;2023-12-28T02:06:07;96529.78;;;1.98;94.76
79077;BME280;68477;42.698;23.342;2023-12-28T02:08:33;96530.22;;;1.61;96.17
79077;BME280;68477;42.698;23.342;2023-12-28T02:10:58;96526.44;;;1.66;96.17
79077;BME280;68477;42.698;23.342;2023-12-28T02:13:25;96523.03;;;1.34;96.77
79077;BME280;68477;42.698;23.342;2023-12-28T02:16:07;96530.31;;;1.59;96.80
79077;BME280;68477;42.698;23.342;2023-12-28T02:18:41;96526.19;;;1.71;94.78
79077;BME280;68477;42.698;23.342;2023-12-28T02:21:08;96516.81;;;1.68;94.81
79077;BME280;68477;42.698;23.342;2023-12-28T02:23:34;96519.09;;;1.43;96.57
79077;BME280;68477;42.698;23.342;2023-12-28T02:26:00;96519.41;;;1.68;95.22
79077;BME280;68477;42.698;23.342;2023-12-28T02:28:26;96518.97;;;1.76;94.21
79077;BME280;68477;42.698;23.342;2023-12-28T02:30:52;96522.81;;;1.69;94.38
79077;BME280;68477;42.698;23.342;2023-12-28T02:35:57;96534.94;;;1.38;96.07
79077;BME280;68477;42.698;23.342;2023-12-28T02:38:24;96528.78;;;1.71;94.55
79077;BME280;68477;42.698;23.342;2023-12-28T02:40:50;96521.22;;;1.21;96.02
79077;BME280;68477;42.698;23.342;2023-12-28T02:43:16;96524.81;;;1.50;95.39
79077;BME280;68477;42.698;23.342;2023-12-28T02:45:42;96518.78;;;1.79;92.62
79077;BME280;68477;42.698;23.342;2023-12-28T02:48:07;96517.13;;;1.78;92.16
79077;BME280;68477;42.698;23.342;2023-12-28T02:50:34;96516.16;;;1.65;92.81
79077;BME280;68477;42.698;23.342;2023-12-28T02:53:00;96510.88;;;1.66;92.53
79077;BME280;68477;42.698;23.342;2023-12-28T02:55:26;96518.47;;;1.39;93.31
79077;BME280;68477;42.698;23.342;2023-12-28T02:57:54;96519.53;;;1.51;92.98
79077;BME280;68477;42.698;23.342;2023-12-28T03:00:21;96516.19;;;1.49;92.63
79077;BME280;68477;42.698;23.342;2023-12-28T03:02:47;96504.66;;;1.39;93.30
79077;BME280;68477;42.698;23.342;2023-12-28T03:05:12;96503.44;;;1.14;94.33
79077;BME280;68477;42.698;23.342;2023-12-28T03:07:38;96506.19;;;1.27;94.36
79077;BME280;68477;42.698;23.342;2023-12-28T03:10:06;96504.59;;;1.25;93.89
79077;BME280;68477;42.698;23.342;2023-12-28T03:12:31;96498.97;;;0.85;95.58
79077;BME280;68477;42.698;23.342;2023-12-28T03:14:57;96508.34;;;0.54;98.71
79077;BME280;68477;42.698;23.342;2023-12-28T03:17:22;96504.53;;;0.62;98.95
79077;BME280;68477;42.698;23.342;2023-12-28T03:19:48;96496.66;;;1.28;93.59
79077;BME280;68477;42.698;23.342;2023-12-28T03:22:13;96504.06;;;0.86;93.83
79077;BME280;68477;42.698;23.342;2023-12-28T03:24:39;96501.06;;;0.12;97.93
79077;BME280;68477;42.698;23.342;2023-12-28T03:27:05;96497.59;;;0.46;96.95
79077;BME280;68477;42.698;23.342;2023-12-28T03:29:31;96497.03;;;0.73;96.17
79077;BME280;68477;42.698;23.342;2023-12-28T03:31:57;96494.06;;;0.96;95.28
79077;BME280;68477;42.698;23.342;2023-12-28T03:34:23;96502.16;;;1.06;93.49
79077;BME280;68477;42.698;23.342;2023-12-28T03:36:49;96509.84;;;1.07;93.87
79077;BME280;68477;42.698;23.342;2023-12-28T03:39:14;96513.69;;;1.00;93.29
79077;BME280;68477;42.698;23.342;2023-12-28T03:41:40;96502.97;;;0.59;96.57
79077;BME280;68477;42.698;23.342;2023-12-28T03:44:05;96510.91;;;0.72;96.50
79077;BME280;68477;42.698;23.342;2023-12-28T03:46:31;96517.75;;;0.57;96.65
79077;BME280;68477;42.698;23.342;2023-12-28T03:48:56;96517.09;;;0.85;95.86
79077;BME280;68477;42.698;23.342;2023-12-28T03:51:22;96530.22;;;0.98;94.85
79077;BME280;68477;42.698;23.342;2023-12-28T03:53:47;96536.88;;;0.70;96.90
79077;BME280;68477;42.698;23.342;2023-12-28T03:56:23;96534.78;;;0.44;98.30
79077;BME280;68477;42.698;23.342;2023-12-28T03:58:50;96536.72;;;0.40;96.91
79077;BME280;68477;42.698;23.342;2023-12-28T04:01:20;96529.41;;;0.31;98.66
79077;BME280;68477;42.698;23.342;2023-12-28T04:03:46;96524.25;;;0.64;98.08
79077;BME280;68477;42.698;23.342;2023-12-28T04:06:12;96535.22;;;0.36;98.09
79077;BME280;68477;42.698;23.342;2023-12-28T04:08:41;96518.97;;;0.66;95.20
79077;BME280;68477;42.698;23.342;2023-12-28T04:11:07;96523.19;;;0.84;94.22
79077;BME280;68477;42.698;23.342;2023-12-28T04:13:33;96536.22;;;0.82;94.18
79077;BME280;68477;42.698;23.342;2023-12-28T04:15:58;96531.63;;;0.87;95.04
79077;BME280;68477;42.698;23.342;2023-12-28T04:18:24;96531.16;;;0.81;95.19
79077;BME280;68477;42.698;23.342;2023-12-28T04:20:49;96533.75;;;0.64;96.15
79077;BME280;68477;42.698;23.342;2023-12-28T04:23:15;96524.03;;;1.00;94.32
79077;BME280;68477;42.698;23.342;2023-12-28T04:25:41;96533.56;;;0.51;96.29
79077;BME280;68477;42.698;23.342;2023-12-28T04:28:07;96531.84;;;0.67;96.16
79077;BME280;68477;42.698;23.342;2023-12-28T04:30:33;96532.34;;;0.58;97.42
79077;BME280;68477;42.698;23.342;2023-12-28T04:33:00;96538.06;;;0.80;95.88
79077;BME280;68477;42.698;23.342;2023-12-28T04:35:26;96541.97;;;0.72;95.68
79077;BME280;68477;42.698;23.342;2023-12-28T04:37:51;96533.88;;;0.78;95.23
79077;BME280;68477;42.698;23.342;2023-12-28T04:40:17;96530.09;;;0.68;96.24
79077;BME280;68477;42.698;23.342;2023-12-28T04:42:43;96532.13;;;0.78;95.43
79077;BME280;68477;42.698;23.342;2023-12-28T04:45:09;96531.19;;;0.64;95.75
79077;BME280;68477;42.698;23.342;2023-12-28T04:47:36;96532.81;;;0.49;97.68
79077;BME280;68477;42.698;23.342;2023-12-28T04:50:02;96533.66;;;0.49;97.97
79077;BME280;68477;42.698;23.342;2023-12-28T04:52:28;96533.56;;;0.51;96.57
79077;BME280;68477;42.698;23.342;2023-12-28T04:54:54;96534.66;;;0.47;97.06
79077;BME280;68477;42.698;23.342;2023-12-28T04:57:19;96531.81;;;0.51;97.26
79077;BME280;68477;42.698;23.342;2023-12-28T04:59:44;96533.13;;;0.76;95.84
79077;BME280;68477;42.698;23.342;2023-12-28T05:02:10;96532.63;;;0.85;94.54
79077;BME280;68477;42.698;23.342;2023-12-28T05:04:38;96540.81;;;0.77;95.66
79077;BME280;68477;42.698;23.342;2023-12-28T05:07:04;96527.81;;;1.10;93.15
79077;BME280;68477;42.698;23.342;2023-12-28T05:09:29;96525.03;;;0.82;94.56
79077;BME280;68477;42.698;23.342;2023-12-28T05:11:55;96535.78;;;0.41;97.97
79077;BME280;68477;42.698;23.342;2023-12-28T05:14:20;96541.53;;;0.64;95.71
79077;BME280;68477;42.698;23.342;2023-12-28T05:16:46;96538.41;;;0.24;97.86
79077;BME280;68477;42.698;23.342;2023-12-28T05:19:11;96541.53;;;-0.04;99.31
79077;BME280;68477;42.698;23.342;2023-12-28T05:21:37;96540.63;;;-0.03;100.00
79077;BME280;68477;42.698;23.342;2023-12-28T05:24:02;96537.34;;;0.11;99.68
79077;BME280;68477;42.698;23.342;2023-12-28T05:26:28;96539.16;;;0.26;99.10
79077;BME280;68477;42.698;23.342;2023-12-28T05:28:53;96539.97;;;0.44;98.00
79077;BME280;68477;42.698;23.342;2023-12-28T05:31:19;96542.44;;;0.29;98.27
79077;BME280;68477;42.698;23.342;2023-12-28T05:33:44;96544.66;;;-0.15;100.00
79077;BME280;68477;42.698;23.342;2023-12-28T05:36:10;96542.91;;;-0.14;100.00
79077;BME280;68477;42.698;23.342;2023-12-28T05:38:35;96546.69;;;0.48;96.73
79077;BME280;68477;42.698;23.342;2023-12-28T05:41:01;96545.13;;;0.61;95.47
79077;BME280;68477;42.698;23.342;2023-12-28T05:43:26;96557.31;;;0.42;96.96
79077;BME280;68477;42.698;23.342;2023-12-28T05:45:52;96560.28;;;0.51;96.12
79077;BME280;68477;42.698;23.342;2023-12-28T05:48:17;96555.00;;;0.70;95.71
79077;BME280;68477;42.698;23.342;2023-12-28T05:50:43;96546.78;;;0.62;96.08
79077;BME280;68477;42.698;23.342;2023-12-28T05:53:08;96548.81;;;0.40;95.11
79077;BME280;68477;42.698;23.342;2023-12-28T05:55:42;96561.53;;;0.27;97.40
79077;BME280;68477;42.698;23.342;2023-12-28T05:58:08;96568.97;;;-0.02;98.11
79077;BME280;68477;42.698;23.342;2023-12-28T06:00:33;96570.81;;;-0.21;100.00
79077;BME280;68477;42.698;23.342;2023-12-28T06:03:01;96564.97;;;-0.07;100.00
79077;BME280;68477;42.698;23.342;2023-12-28T06:05:27;96568.31;;;0.12;98.48
79077;BME280;68477;42.698;23.342;2023-12-28T06:07:52;96562.75;;;0.20;97.75
79077;BME280;68477;42.698;23.342;2023-12-28T06:10:18;96563.03;;;0.31;97.89
79077;BME280;68477;42.698;23.342;2023-12-28T06:12:45;96562.72;;;0.54;95.53
79077;BME280;68477;42.698;23.342;2023-12-28T06:15:10;96578.09;;;0.57;95.88
79077;BME280;68477;42.698;23.342;2023-12-28T06:17:36;96568.44;;;0.44;97.28
79077;BME280;68477;42.698;23.342;2023-12-28T06:20:02;96568.44;;;0.44;95.97
79077;BME280;68477;42.698;23.342;2023-12-28T06:22:27;96572.50;;;0.15;98.77
79077;BME280;68477;42.698;23.342;2023-12-28T06:24:56;96575.66;;;0.54;95.51
79077;BME280;68477;42.698;23.342;2023-12-28T06:27:22;96573.09;;;0.03;96.95
79077;BME280;68477;42.698;23.342;2023-12-28T06:29:49;96566.25;;;0.36;96.93
79077;BME280;68477;42.698;23.342;2023-12-28T06:32:14;96576.63;;;0.02;97.46
79077;BME280;68477;42.698;23.342;2023-12-28T06:34:40;96584.34;;;0.19;97.68
79077;BME280;68477;42.698;23.342;2023-12-28T06:37:05;96575.16;;;0.48;95.82
79077;BME280;68477;42.698;23.342;2023-12-28T06:39:31;96575.28;;;0.45;96.93
79077;BME280;68477;42.698;23.342;2023-12-28T06:41:56;96581.00;;;0.51;94.88
79077;BME280;68477;42.698;23.342;2023-12-28T06:44:22;96575.97;;;0.31;96.62
79077;BME280;68477;42.698;23.342;2023-12-28T06:46:47;96579.19;;;0.36;97.57
79077;BME280;68477;42.698;23.342;2023-12-28T06:49:13;96586.81;;;0.72;95.31
79077;BME280;68477;42.698;23.342;2023-12-28T06:51:39;96584.94;;;0.58;96.51
79077;BME280;68477;42.698;23.342;2023-12-28T06:54:04;96586.03;;;0.37;98.81
79077;BME280;68477;42.698;23.342;2023-12-28T06:56:30;96587.25;;;0.47;97.77
79077;BME280;68477;42.698;23.342;2023-12-28T06:58:55;96579.06;;;0.72;97.14
79077;BME280;68477;42.698;23.342;2023-12-28T07:01:21;96585.25;;;0.85;95.87
79077;BME280;68477;42.698;23.342;2023-12-28T07:03:46;96591.09;;;0.73;96.19
79077;BME280;68477;42.698;23.342;2023-12-28T07:06:13;96589.66;;;1.16;95.29
79077;BME280;68477;42.698;23.342;2023-12-28T07:08:39;96588.66;;;1.19;95.32
79077;BME280;68477;42.698;23.342;2023-12-28T07:11:04;96590.41;;;1.66;93.26
79077;BME280;68477;42.698;23.342;2023-12-28T07:13:30;96586.09;;;1.51;93.17
79077;BME280;68477;42.698;23.342;2023-12-28T07:15:57;96588.09;;;1.61;93.66
79077;BME280;68477;42.698;23.342;2023-12-28T07:18:23;96589.69;;;1.48;94.17
79077;BME280;68477;42.698;23.342;2023-12-28T07:20:48;96593.25;;;1.45;94.24
79077;BME280;68477;42.698;23.342;2023-12-28T07:23:14;96589.00;;;1.29;95.44
79077;BME280;68477;42.698;23.342;2023-12-28T07:25:40;96593.09;;;1.64;93.58
79077;BME280;68477;42.698;23.342;2023-12-28T07:28:05;96587.53;;;2.02;93.25
79077;BME280;68477;42.698;23.342;2023-12-28T07:30:31;96580.16;;;2.10;92.46
79077;BME280;68477;42.698;23.342;2023-12-28T07:32:56;96591.31;;;2.26;91.86
79077;BME280;68477;42.698;23.342;2023-12-28T07:35:22;96585.25;;;2.42;91.73
79077;BME280;68477;42.698;23.342;2023-12-28T07:37:48;96586.19;;;2.25;91.50
79077;BME280;68477;42.698;23.342;2023-12-28T07:40:15;96589.44;;;2.58;88.67
79077;BME280;68477;42.698;23.342;2023-12-28T07:42:40;96589.53;;;2.57;88.59
79077;BME280;68477;42.698;23.342;2023-12-28T07:45:06;96584.06;;;3.04;87.30
79077;BME280;68477;42.698;23.342;2023-12-28T07:47:31;96591.78;;;3.20;86.60
79077;BME280;68477;42.698;23.342;2023-12-28T07:49:57;96587.81;;;3.29;85.93
79077;BME280;68477;42.698;23.342;2023-12-28T07:52:23;96596.09;;;3.48;86.13
79077;BME280;68477;42.698;23.342;2023-12-28T07:54:48;96595.41;;;3.73;85.21
79077;BME280;68477;42.698;23.342;2023-12-28T07:57:14;96596.94;;;3.63;84.89
79077;BME280;68477;42.698;23.342;2023-12-28T07:59:39;96602.44;;;3.44;84.90
79077;BME280;68477;42.698;23.342;2023-12-28T08:02:05;96595.00;;;3.52;85.21
79077;BME280;68477;42.698;23.342;2023-12-28T08:04:30;96599.97;;;3.96;82.37
79077;BME280;68477;42.698;23.342;2023-12-28T08:06:58;96595.34;;;4.14;81.95
79077;BME280;68477;42.698;23.342;2023-12-28T08:09:24;96589.44;;;4.25;81.79
79077;BME280;68477;42.698;23.342;2023-12-28T08:11:49;96583.22;;;4.53;79.57
79077;BME280;68477;42.698;23.342;2023-12-28T08:14:15;96583.66;;;4.07;82.97
79077;BME280;68477;42.698;23.342;2023-12-28T08:16:40;96581.19;;;4.71;78.61
79077;BME280;68477;42.698;23.342;2023-12-28T08:19:06;96581.19;;;4.71;79.44
79077;BME280;68477;42.698;23.342;2023-12-28T08:21:31;96581.41;;;4.93;78.97
79077;BME280;68477;42.698;23.342;2023-12-28T08:23:57;96582.75;;;5.11;78.22
79077;BME280;68477;42.698;23.342;2023-12-28T08:26:22;96583.06;;;4.81;78.57
79077;BME280;68477;42.698;23.342;2023-12-28T08:28:48;96580.97;;;4.86;78.62
79077;BME280;68477;42.698;23.342;2023-12-28T08:31:14;96578.69;;;5.57;76.66
79077;BME280;68477;42.698;23.342;2023-12-28T08:33:40;96575.63;;;5.63;75.24
79077;BME280;68477;42.698;23.342;2023-12-28T08:36:07;96578.22;;;5.39;74.71
79077;BME280;68477;42.698;23.342;2023-12-28T08:38:32;96589.75;;;5.60;74.35
79077;BME280;68477;42.698;23.342;2023-12-28T08:40:58;96583.81;;;5.58;73.97
79077;BME280;68477;42.698;23.342;2023-12-28T08:43:24;96573.03;;;5.87;74.22
79077;BME280;68477;42.698;23.342;2023-12-28T08:45:49;96552.19;;;6.46;71.89
79077;BME280;68477;42.698;23.342;2023-12-28T08:48:14;96562.44;;;6.60;69.87
79077;BME280;68477;42.698;23.342;2023-12-28T08:50:40;96558.66;;;5.94;73.20
79077;BME280;68477;42.698;23.342;2023-12-28T08:53:05;96554.09;;;5.72;72.71
79077;BME280;68477;42.698;23.342;2023-12-28T08:55:31;96550.72;;;7.10;69.50
79077;BME280;68477;42.698;23.342;2023-12-28T08:57:57;96550.38;;;7.15;67.99
79077;BME280;68477;42.698;23.342;2023-12-28T09:00:22;96550.53;;;7.79;66.63
79077;BME280;68477;42.698;23.342;2023-12-28T09:02:48;96549.88;;;6.98;69.02
79077;BME280;68477;42.698;23.342;2023-12-28T09:05:13;96544.28;;;6.69;70.33
79077;BME280;68477;42.698;23.342;2023-12-28T09:07:39;96542.63;;;7.24;69.62
79077;BME280;68477;42.698;23.342;2023-12-28T09:10:11;96532.72;;;6.50;71.08
79077;BME280;68477;42.698;23.342;2023-12-28T09:12:37;96540.88;;;7.79;66.80
79077;BME280;68477;42.698;23.342;2023-12-28T09:15:04;96542.50;;;7.48;66.10
79077;BME280;68477;42.698;23.342;2023-12-28T09:17:30;96540.78;;;8.13;66.00
79077;BME280;68477;42.698;23.342;2023-12-28T09:19:56;96532.91;;;8.13;64.15
79077;BME280;68477;42.698;23.342;2023-12-28T09:22:23;96534.69;;;8.12;64.14
79077;BME280;68477;42.698;23.342;2023-12-28T09:24:49;96519.16;;;8.00;65.05
79077;BME280;68477;42.698;23.342;2023-12-28T09:27:14;96519.31;;;8.19;65.05
79077;BME280;68477;42.698;23.342;2023-12-28T09:29:40;96518.59;;;7.42;67.28
79077;BME280;68477;42.698;23.342;2023-12-28T09:32:06;96513.91;;;7.56;67.10
79077;BME280;68477;42.698;23.342;2023-12-28T09:34:31;96511.75;;;7.73;68.06
79077;BME280;68477;42.698;23.342;2023-12-28T09:36:57;96502.25;;;8.25;65.26
79077;BME280;68477;42.698;23.342;2023-12-28T09:39:22;96499.50;;;7.73;66.73
79077;BME280;68477;42.698;23.342;2023-12-28T09:41:52;96487.56;;;8.75;63.57
79077;BME280;68477;42.698;23.342;2023-12-28T09:44:21;96475.56;;;8.52;65.12
79077;BME280;68477;42.698;23.342;2023-12-28T09:46:47;96479.97;;;7.98;66.64
79077;BME280;68477;42.698;23.342;2023-12-28T09:49:12;96479.25;;;8.28;64.92
79077;BME280;68477;42.698;23.342;2023-12-28T09:51:38;96476.16;;;8.23;66.37
79077;BME280;68477;42.698;23.342;2023-12-28T09:54:04;96468.56;;;7.67;67.37
79077;BME280;68477;42.698;23.342;2023-12-28T09:56:33;96467.53;;;9.14;62.85
79077;BME280;68477;42.698;23.342;2023-12-28T09:59:02;96463.81;;;8.77;62.74
79077;BME280;68477;42.698;23.342;2023-12-28T10:01:28;96460.66;;;9.23;62.80
79077;BME280;68477;42.698;23.342;2023-12-28T10:03:54;96450.75;;;8.86;63.62
79077;BME280;68477;42.698;23.342;2023-12-28T10:06:20;96449.16;;;8.43;63.71
79077;BME280;68477;42.698;23.342;2023-12-28T10:08:47;96436.56;;;8.68;64.20
79077;BME280;68477;42.698;23.342;2023-12-28T10:11:15;96452.72;;;9.03;63.26
79077;BME280;68477;42.698;23.342;2023-12-28T10:13:41;96450.66;;;8.97;62.48
79077;BME280;68477;42.698;23.342;2023-12-28T10:16:12;96443.19;;;9.02;62.44
79077;BME280;68477;42.698;23.342;2023-12-28T10:18:45;96441.47;;;8.82;63.04
79077;BME280;68477;42.698;23.342;2023-12-28T10:21:11;96432.06;;;8.80;63.86
79077;BME280;68477;42.698;23.342;2023-12-28T10:23:37;96422.84;;;9.45;62.29
79077;BME280;68477;42.698;23.342;2023-12-28T10:26:04;96417.88;;;9.42;61.52
79077;BME280;68477;42.698;23.342;2023-12-28T10:28:32;96411.91;;;9.40;62.24
79077;BME280;68477;42.698;23.342;2023-12-28T10:30:59;96408.75;;;9.36;62.27
79077;BME280;68477;42.698;23.342;2023-12-28T10:33:25;96394.06;;;9.24;63.48
79077;BME280;68477;42.698;23.342;2023-12-28T10:35:51;96389.78;;;10.29;59.95
79077;BME280;68477;42.698;23.342;2023-12-28T10:38:17;96377.53;;;9.52;62.09
79077;BME280;68477;42.698;23.342;2023-12-28T10:40:47;96373.22;;;9.90;60.62
79077;BME280;68477;42.698;23.342;2023-12-28T10:43:16;96372.00;;;9.46;61.51
79077;BME280;68477;42.698;23.342;2023-12-28T10:45:46;96370.47;;;9.33;62.47
79077;BME280;68477;42.698;23.342;2023-12-28T10:48:12;96359.78;;;8.96;64.59
79077;BME280;68477;42.698;23.342;2023-12-28T10:50:49;96358.25;;;9.03;64.64
79077;BME280;68477;42.698;23.342;2023-12-28T10:53:42;96352.78;;;9.26;63.08
79077;BME280;68477;42.698;23.342;2023-12-28T10:59:27;96338.97;;;10.93;58.86
79077;BME280;68477;42.698;23.342;2023-12-28T11:01:56;96342.31;;;10.68;59.00
79077;BME280;68477;42.698;23.342;2023-12-28T11:04:34;96336.34;;;10.93;58.01
79077;BME280;68477;42.698;23.342;2023-12-28T11:07:02;96327.75;;;10.36;59.26
79077;BME280;68477;42.698;23.342;2023-12-28T11:09:30;96327.41;;;10.12;60.71
79077;BME280;68477;42.698;23.342;2023-12-28T11:11:57;96317.53;;;10.61;58.74
79077;BME280;68477;42.698;23.342;2023-12-28T11:14:27;96316.88;;;10.12;61.20
79077;BME280;68477;42.698;23.342;2023-12-28T11:16:53;96315.97;;;10.40;59.04
79077;BME280;68477;42.698;23.342;2023-12-28T11:19:20;96317.09;;;10.38;59.55
79077;BME280;68477;42.698;23.342;2023-12-28T11:21:49;96311.75;;;10.20;60.47
79077;BME280;68477;42.698;23.342;2023-12-28T11:24:16;96301.59;;;10.62;59.69
79077;BME280;68477;42.698;23.342;2023-12-28T11:26:42;96300.47;;;10.92;57.99
79077;BME280;68477;42.698;23.342;2023-12-28T11:29:07;96301.31;;;10.93;57.92
79077;BME280;68477;42.698;23.342;2023-12-28T11:31:34;96299.19;;;12.11;54.31
79077;BME280;68477;42.698;23.342;2023-12-28T11:34:00;96292.31;;;13.11;52.10
79077;BME280;68477;42.698;23.342;2023-12-28T11:36:34;96282.41;;;13.13;50.85
79077;BME280;68477;42.698;23.342;2023-12-28T11:39:03;96269.94;;;13.39;50.29
79077;BME280;68477;42.698;23.342;2023-12-28T11:41:33;96271.22;;;13.92;49.08
79077;BME280;68477;42.698;23.342;2023-12-28T11:44:04;96269.47;;;14.40;47.01
79077;BME280;68477;42.698;23.342;2023-12-28T11:46:31;96258.69;;;14.89;46.54
79077;BME280;68477;42.698;23.342;2023-12-28T11:49:07;96266.84;;;14.32;47.92
79077;BME280;68477;42.698;23.342;2023-12-28T11:51:35;96265.25;;;15.24;45.34
79077;BME280;68477;42.698;23.342;2023-12-28T11:54:03;96254.22;;;14.90;45.35
79077;BME280;68477;42.698;23.342;2023-12-28T11:56:29;96249.28;;;15.55;44.68
79077;BME280;68477;42.698;23.342;2023-12-28T11:58:55;96253.69;;;14.94;45.91
79077;BME280;68477;42.698;23.342;2023-12-28T12:01:20;96250.59;;;14.51;46.40
79077;BME280;68477;42.698;23.342;2023-12-28T12:03:46;96249.16;;;16.24;43.52
79077;BME280;68477;42.698;23.342;2023-12-28T12:06:11;96252.22;;;15.83;43.72
79077;BME280;68477;42.698;23.342;2023-12-28T12:08:37;96251.63;;;14.34;45.65
79077;BME280;68477;42.698;23.342;2023-12-28T12:11:05;96255.00;;;14.67;45.48
79077;BME280;68477;42.698;23.342;2023-12-28T12:13:31;96241.41;;;15.85;42.23
79077;BME280;68477;42.698;23.342;2023-12-28T12:15:57;96234.84;;;15.95;42.35
79077;BME280;68477;42.698;23.342;2023-12-28T12:18:23;96232.75;;;14.45;46.30
79077;BME280;68477;42.698;23.342;2023-12-28T12:20:49;96225.44;;;16.08;42.67
79077;BME280;68477;42.698;23.342;2023-12-28T12:23:15;96223.31;;;15.28;45.50
79077;BME280;68477;42.698;23.342;2023-12-28T12:25:41;96225.66;;;14.77;45.97
79077;BME280;68477;42.698;23.342;2023-12-28T12:28:07;96227.78;;;14.42;45.75
79077;BME280;68477;42.698;23.342;2023-12-28T12:30:33;96234.06;;;14.41;45.01
79077;BME280;68477;42.698;23.342;2023-12-28T12:32:59;96226.78;;;15.28;44.30
79077;BME280;68477;42.698;23.342;2023-12-28T12:35:25;96233.88;;;16.11;42.97
79077;BME280;68477;42.698;23.342;2023-12-28T12:37:51;96240.50;;;14.86;44.31
79077;BME280;68477;42.698;23.342;2023-12-28T12:40:17;96231.69;;;16.15;42.62
79077;BME280;68477;42.698;23.342;2023-12-28T12:42:54;96233.47;;;15.24;44.38
79077;BME280;68477;42.698;23.342;2023-12-28T12:45:20;96235.06;;;15.10;44.64
79077;BME280;68477;42.698;23.342;2023-12-28T12:47:47;96226.38;;;16.00;43.06
79077;BME280;68477;42.698;23.342;2023-12-28T12:50:15;96228.34;;;15.83;42.13
79077;BME280;68477;42.698;23.342;2023-12-28T12:52:41;96225.56;;;15.16;43.95
79077;BME280;68477;42.698;23.342;2023-12-28T12:55:13;96228.91;;;15.93;42.57
79077;BME280;68477;42.698;23.342;2023-12-28T12:57:42;96228.00;;;16.45;41.29
79077;BME280;68477;42.698;23.342;2023-12-28T13:00:09;96213.47;;;16.26;41.40